Meramec River (Missouri), Eureka (07019000)

StateMissouriLatestUnknown (8020 cfs)
RiverMeramec RiverRatingObservedEstimated
Updated2020-08-11 19:00 (29 minutes ago)Flood - The river is flooding. Obstacles can be treacherous or deadly. The river should be avoided at this stage for casual trips and definitely for the inexperienced. Trips should be attempted only with protective gear and equipment.Flood(none)(none)
Discharge8020 cfs (median: 795 cfs)High - The river is high and potentially dangerous, especially for the young and / or inexperienced. Normal stream obstacles are sometimes difficult to navigate. Extended distances can be attempted, but canoe travel may not be advisable.High(none)(none)
Height8.01 feetGood - Conditions are ideal for a canoe or kayak. Boats typically will drag on fewer than one-quarter of riffles, if at all, and portages are unnecessary or rare. Normal float lengths can be attempted without a problem.Good(none)(none)
TrendFalling (rising over 24 hours)Low - River is low but can still be floated. Some riffles are okay but most come with significant dragging and might need a portage. Float lengths should be reduced to accommodate low flow, dragging, and portages.Low(none)(none)
USGSExternal icon USGS Site (External icon Google Maps)Poor - River is too low to float comfortably. Most or all riffles will drag or must be portaged and some obstacles (such as slick shelf rock) cause undue problems. Avoid the river at this stage for casual paddling trips.Poor(none)(none)

Trending Data

Plot Image

Trips for Meramec River (Missouri), Eureka (07019000)

DateStartEndDistanceConditionDischargeHeightFishingDetails

A total of 0 rows are displayed.

Condition Descriptions

Fishing Conditions

Fish Species

Notes

Classic Trip List

The classic River Trips application is still available for use. It is updated with the new system using a data retrofit. It is no longer maintained. The original River Trips application is no longer updated (as of 1 Dec 2016) but can be checked for errors or for the condition of the data before it was converted to the new system.

Gauge Data Table

ObservationHeightDischargeMaximum
Discharge
Minimum
Discharge
Mean
Discharge
P05P10P20P25P50
(Median)
P75P80P90P95
2020-08-11 19:00 8.01 8020 18000 (1970) 232 (1934) 1390 378 438 502 551 795 1170 1310 2180 3920
2020-08-11 18:30 8.08 8150 18000 (1970) 232 (1934) 1390 378 438 502 551 795 1170 1310 2180 3920
2020-08-11 18:00 8.13 8240 18000 (1970) 232 (1934) 1390 378 438 502 551 795 1170 1310 2180 3920
2020-08-11 17:30 8.18 8340 18000 (1970) 232 (1934) 1390 378 438 502 551 795 1170 1310 2180 3920
2020-08-11 17:00 8.22 8410 18000 (1970) 232 (1934) 1390 378 438 502 551 795 1170 1310 2180 3920
2020-08-11 16:30 8.23 8430 18000 (1970) 232 (1934) 1390 378 438 502 551 795 1170 1310 2180 3920
2020-08-11 16:00 8.28 8520 18000 (1970) 232 (1934) 1390 378 438 502 551 795 1170 1310 2180 3920
2020-08-11 15:30 8.31 8580 18000 (1970) 232 (1934) 1390 378 438 502 551 795 1170 1310 2180 3920
2020-08-11 15:00 8.33 8620 18000 (1970) 232 (1934) 1390 378 438 502 551 795 1170 1310 2180 3920
2020-08-11 14:30 8.32 8600 18000 (1970) 232 (1934) 1390 378 438 502 551 795 1170 1310 2180 3920
2020-08-11 14:00 8.34 8640 18000 (1970) 232 (1934) 1390 378 438 502 551 795 1170 1310 2180 3920
2020-08-11 13:30 8.32 8600 18000 (1970) 232 (1934) 1390 378 438 502 551 795 1170 1310 2180 3920
2020-08-11 13:00 8.32 8600 18000 (1970) 232 (1934) 1390 378 438 502 551 795 1170 1310 2180 3920
2020-08-11 12:30 8.29 8540 18000 (1970) 232 (1934) 1390 378 438 502 551 795 1170 1310 2180 3920
2020-08-11 12:00 8.26 8490 18000 (1970) 232 (1934) 1390 378 438 502 551 795 1170 1310 2180 3920
2020-08-11 11:30 8.19 8350 18000 (1970) 232 (1934) 1390 378 438 502 551 795 1170 1310 2180 3920
2020-08-11 11:00 8.14 8260 18000 (1970) 232 (1934) 1390 378 438 502 551 795 1170 1310 2180 3920
2020-08-11 10:30 8.09 8170 18000 (1970) 232 (1934) 1390 378 438 502 551 795 1170 1310 2180 3920
2020-08-11 10:00 8.01 8020 18000 (1970) 232 (1934) 1390 378 438 502 551 795 1170 1310 2180 3920
2020-08-11 09:30 7.92 7850 18000 (1970) 232 (1934) 1390 378 438 502 551 795 1170 1310 2180 3920
2020-08-11 09:00 7.81 7650 18000 (1970) 232 (1934) 1390 378 438 502 551 795 1170 1310 2180 3920
2020-08-11 08:30 7.69 7430 18000 (1970) 232 (1934) 1390 378 438 502 551 795 1170 1310 2180 3920
2020-08-11 08:00 7.55 7170 18000 (1970) 232 (1934) 1390 378 438 502 551 795 1170 1310 2180 3920
2020-08-11 07:30 7.39 6880 18000 (1970) 232 (1934) 1390 378 438 502 551 795 1170 1310 2180 3920
2020-08-11 07:00 7.21 6560 18000 (1970) 232 (1934) 1390 378 438 502 551 795 1170 1310 2180 3920
2020-08-11 06:30 7.11 6390 18000 (1970) 232 (1934) 1390 378 438 502 551 795 1170 1310 2180 3920
2020-08-11 06:00 6.98 6160 18000 (1970) 232 (1934) 1390 378 438 502 551 795 1170 1310 2180 3920
2020-08-11 05:30 6.84 5910 18000 (1970) 232 (1934) 1390 378 438 502 551 795 1170 1310 2180 3920
2020-08-11 05:00 6.70 5660 18000 (1970) 232 (1934) 1390 378 438 502 551 795 1170 1310 2180 3920
2020-08-11 04:30 6.61 5510 18000 (1970) 232 (1934) 1390 378 438 502 551 795 1170 1310 2180 3920
2020-08-11 04:00 6.52 5350 18000 (1970) 232 (1934) 1390 378 438 502 551 795 1170 1310 2180 3920
2020-08-11 03:30 6.45 5230 18000 (1970) 232 (1934) 1390 378 438 502 551 795 1170 1310 2180 3920
2020-08-11 03:00 6.39 5130 18000 (1970) 232 (1934) 1390 378 438 502 551 795 1170 1310 2180 3920
2020-08-11 02:30 6.35 5060 18000 (1970) 232 (1934) 1390 378 438 502 551 795 1170 1310 2180 3920
2020-08-11 02:00 6.29 4960 18000 (1970) 232 (1934) 1390 378 438 502 551 795 1170 1310 2180 3920
2020-08-11 01:30 6.25 4890 18000 (1970) 232 (1934) 1390 378 438 502 551 795 1170 1310 2180 3920
2020-08-11 01:00 6.24 4870 18000 (1970) 232 (1934) 1390 378 438 502 551 795 1170 1310 2180 3920
2020-08-11 00:30 6.17 4750 18000 (1970) 232 (1934) 1390 378 438 502 551 795 1170 1310 2180 3920
2020-08-11 00:00 6.18 4770 18000 (1970) 232 (1934) 1390 378 438 502 551 795 1170 1310 2180 3920
2020-08-10 23:30 6.15 4720 11500 (1970) 232 (1934) 1280 356 430 512 538 766 1280 1320 2760 3710
2020-08-10 23:00 6.12 4670 11500 (1970) 232 (1934) 1280 356 430 512 538 766 1280 1320 2760 3710
2020-08-10 22:30 6.12 4670 11500 (1970) 232 (1934) 1280 356 430 512 538 766 1280 1320 2760 3710
2020-08-10 22:00 6.14 4700 11500 (1970) 232 (1934) 1280 356 430 512 538 766 1280 1320 2760 3710
2020-08-10 21:30 6.10 4640 11500 (1970) 232 (1934) 1280 356 430 512 538 766 1280 1320 2760 3710
2020-08-10 21:00 6.12 4670 11500 (1970) 232 (1934) 1280 356 430 512 538 766 1280 1320 2760 3710
2020-08-10 20:30 6.11 4650 11500 (1970) 232 (1934) 1280 356 430 512 538 766 1280 1320 2760 3710
2020-08-10 20:00 6.10 4640 11500 (1970) 232 (1934) 1280 356 430 512 538 766 1280 1320 2760 3710
2020-08-10 19:30 6.08 4600 11500 (1970) 232 (1934) 1280 356 430 512 538 766 1280 1320 2760 3710
2020-08-10 19:00 6.04 4540 11500 (1970) 232 (1934) 1280 356 430 512 538 766 1280 1320 2760 3710
2020-08-10 18:30 6.03 4520 11500 (1970) 232 (1934) 1280 356 430 512 538 766 1280 1320 2760 3710
2020-08-10 18:00 5.94 4370 11500 (1970) 232 (1934) 1280 356 430 512 538 766 1280 1320 2760 3710
2020-08-10 17:30 5.92 4340 11500 (1970) 232 (1934) 1280 356 430 512 538 766 1280 1320 2760 3710
2020-08-10 17:00 5.89 4290 11500 (1970) 232 (1934) 1280 356 430 512 538 766 1280 1320 2760 3710
2020-08-10 16:30 5.85 4230 11500 (1970) 232 (1934) 1280 356 430 512 538 766 1280 1320 2760 3710
2020-08-10 16:00 5.83 4190 11500 (1970) 232 (1934) 1280 356 430 512 538 766 1280 1320 2760 3710
2020-08-10 15:30 5.78 4110 11500 (1970) 232 (1934) 1280 356 430 512 538 766 1280 1320 2760 3710
2020-08-10 15:00 5.76 4080 11500 (1970) 232 (1934) 1280 356 430 512 538 766 1280 1320 2760 3710
2020-08-10 14:30 5.73 4030 11500 (1970) 232 (1934) 1280 356 430 512 538 766 1280 1320 2760 3710
2020-08-10 14:00 5.66 3920 11500 (1970) 232 (1934) 1280 356 430 512 538 766 1280 1320 2760 3710
2020-08-10 13:30 5.65 3900 11500 (1970) 232 (1934) 1280 356 430 512 538 766 1280 1320 2760 3710
2020-08-10 13:00 5.61 3840 11500 (1970) 232 (1934) 1280 356 430 512 538 766 1280 1320 2760 3710
2020-08-10 12:30 5.54 3730 11500 (1970) 232 (1934) 1280 356 430 512 538 766 1280 1320 2760 3710
2020-08-10 12:00 5.51 3680 11500 (1970) 232 (1934) 1280 356 430 512 538 766 1280 1320 2760 3710
2020-08-10 11:30 5.47 3620 11500 (1970) 232 (1934) 1280 356 430 512 538 766 1280 1320 2760 3710
2020-08-10 11:00 5.42 3540 11500 (1970) 232 (1934) 1280 356 430 512 538 766 1280 1320 2760 3710
2020-08-10 10:30 5.38 3480 11500 (1970) 232 (1934) 1280 356 430 512 538 766 1280 1320 2760 3710
2020-08-10 10:00 5.32 3390 11500 (1970) 232 (1934) 1280 356 430 512 538 766 1280 1320 2760 3710
2020-08-10 09:30 5.30 3360 11500 (1970) 232 (1934) 1280 356 430 512 538 766 1280 1320 2760 3710
2020-08-10 09:00 5.27 3310 11500 (1970) 232 (1934) 1280 356 430 512 538 766 1280 1320 2760 3710
2020-08-10 08:30 5.25 3280 11500 (1970) 232 (1934) 1280 356 430 512 538 766 1280 1320 2760 3710
2020-08-10 08:00 5.23 3250 11500 (1970) 232 (1934) 1280 356 430 512 538 766 1280 1320 2760 3710
2020-08-10 07:30 5.21 3220 11500 (1970) 232 (1934) 1280 356 430 512 538 766 1280 1320 2760 3710
2020-08-10 07:00 5.21 3220 11500 (1970) 232 (1934) 1280 356 430 512 538 766 1280 1320 2760 3710
2020-08-10 06:30 5.21 3220 11500 (1970) 232 (1934) 1280 356 430 512 538 766 1280 1320 2760 3710
2020-08-10 06:00 5.22 3240 11500 (1970) 232 (1934) 1280 356 430 512 538 766 1280 1320 2760 3710
2020-08-10 05:30 5.24 3270 11500 (1970) 232 (1934) 1280 356 430 512 538 766 1280 1320 2760 3710
2020-08-10 05:00 5.25 3280 11500 (1970) 232 (1934) 1280 356 430 512 538 766 1280 1320 2760 3710
2020-08-10 04:30 5.29 3340 11500 (1970) 232 (1934) 1280 356 430 512 538 766 1280 1320 2760 3710
2020-08-10 04:00 5.33 3400 11500 (1970) 232 (1934) 1280 356 430 512 538 766 1280 1320 2760 3710
2020-08-10 03:30 5.34 3420 11500 (1970) 232 (1934) 1280 356 430 512 538 766 1280 1320 2760 3710
2020-08-10 03:00 5.39 3500 11500 (1970) 232 (1934) 1280 356 430 512 538 766 1280 1320 2760 3710
2020-08-10 02:30 5.41 3530 11500 (1970) 232 (1934) 1280 356 430 512 538 766 1280 1320 2760 3710
2020-08-10 02:00 5.46 3610 11500 (1970) 232 (1934) 1280 356 430 512 538 766 1280 1320 2760 3710
2020-08-10 01:30 5.49 3650 11500 (1970) 232 (1934) 1280 356 430 512 538 766 1280 1320 2760 3710
2020-08-10 01:00 5.48 3640 11500 (1970) 232 (1934) 1280 356 430 512 538 766 1280 1320 2760 3710
2020-08-10 00:30 5.52 3700 11500 (1970) 232 (1934) 1280 356 430 512 538 766 1280 1320 2760 3710
2020-08-10 00:00 5.55 3750 11500 (1970) 232 (1934) 1280 356 430 512 538 766 1280 1320 2760 3710

A total of 87 rows are displayed for years 1904 through 2019.